x

Western Caribbean - 195 Nm Wsw Of Negril Jamiaca (42057) Wave Buoy

1:50pm - Sat 25th Oct 2014 All times are UTC.

  • Sig Wave height 2.3ft
  • Swell Direction
  • Peak Period 5s
  • Average Period 4s
  • Wind
    7mph, 9mph gusts
  • Sea Temp 84°f
  • Air Temp 81°f
  • Sea Pressure 1012.1mb

More Historic Weather Station data

Upgrade to MSW Pro to gain access to the past 30 days of data for over 8000 Wavebouys and Weather Stations around the globe.

Join Pro

Comparision Forecast

View Surf forecast
   
Sat 10/25 1:50pm 2.5ft 5s 4s 7 9 mph 1012.1mb 84f 81f
12:50pm 2ft 6s 4s 7 9 mph 1011.2mb 84f 80f
11:50am 2ft 6s 5s 9 11 mph 1010.7mb 84f 81f
10:50am 1.6ft 7s 4s 4 7 mph 1010.4mb 84f 83f
9:50am 2ft 6s 4s 7 9 mph 1010.4mb 84f 83f
8:50am 2ft 6s 4s 4 7 mph 1009.8mb 84f 83f
7:50am 2ft 7s 4s 9
mph
1009.5mb 84f 83f
6:50am 2ft 7s 4s 9
mph
1009.9mb 84f 83f
5:50am 2ft 7s 4s 9 11 mph 1010.5mb 84f 83f
4:50am 2.5ft 7s 4s 11 13 mph 1010.5mb 84f 83f
3:50am 2.5ft 7s 4s 11 13 mph 1011.1mb 85f 83f
2:50am 2.5ft 7s 4s 11 13 mph 1011.1mb 85f 83f
1:50am 2.5ft 7s 4s 11 13 mph 1010.6mb 85f 83f
12:50am 2.5ft 7s 4s 13 16 mph 1009.6mb 85f 83f
Fri 10/24 11:50pm 2.5ft 7s 4s 13
mph
1008.6mb 85f 83f
10:50pm 2.5ft 4s 4s 11 13 mph 1008.3mb 85f 84f
9:50pm 2.5ft 7s 4s 11 13 mph 1008.3mb 85f 84f
8:50pm 2.5ft 7s 4s 11 13 mph 1008.6mb 85f 84f
7:50pm 2.5ft 7s 4s 13 16 mph 1008.9mb 85f 84f
6:50pm 2.5ft 7s 4s 13 16 mph 1009.3mb 85f 84f
5:50pm 3ft 7s 4s 16 18 mph 1009.8mb 85f 84f
4:50pm 3ft 4s 4s 16
mph
1010.9mb 85f 84f
3:50pm 3ft 6s 4s 13 16 mph 1011.9mb 85f 84f
2:50pm 3ft 6s 4s 16
mph
1012.4mb 85f 84f
1:50pm 2.5ft 6s 4s 13 16 mph 1011.7mb 85f 83f
12:50pm 2.5ft 7s 4s 13 16 mph 1010.7mb 85f 83f
11:50am 3ft 7s 4s 13 16 mph 1010.4mb 85f 83f
10:50am 3ft 6s 4s 13 16 mph 1009.4mb 84f 83f
9:50am 3ft 4s 4s 13 18 mph 1009.3mb 84f 83f
8:50am 3ft 4s 4s 16 18 mph 1009mb 84f 83f
7:50am 3ft 7s 4s 16 20 mph 1009.2mb 84f 83f
6:50am 3ft 7s 4s 16 20 mph 1009.2mb 84f 83f
5:50am 3ft 7s 5s 16 20 mph 1010mb 84f 83f
4:50am 2.5ft 7s 4s 13 16 mph 1010.9mb 84f 83f
3:50am 3ft 7s 5s 11 13 mph 1011.2mb 84f 83f
2:50am 3ft 7s 5s 11 13 mph 1011.5mb 84f 83f
1:50am 3ft 5s 4s 11 13 mph 1011.3mb 84f 84f
12:50am 3ft 7s 4s 13 16 mph 1010.2mb 84f 83f
Thu 10/23 11:50pm 3ft 7s 5s 13 16 mph 1009.5mb 84f 84f
10:50pm 3ft 7s 5s 11 13 mph 1009mb 84f 84f
9:50pm 3ft 6s 4s 11 16 mph 1008.7mb 85f 84f
8:50pm 3ft 7s 4s 11
mph
1008.6mb 85f 84f
7:50pm 3ft 6s 4s 13
mph
1008.2mb 85f 84f
6:50pm 3ft 6s 4s 13 16 mph 1008.6mb 85f 84f
5:50pm 3.5ft 7s 4s 13 16 mph 1009.2mb 84f 83f
4:50pm 3ft 7s 4s 13 16 mph 1010.4mb 84f 83f
3:50pm 3.5ft 7s 4s 16 18 mph 1010.7mb 84f 84f
2:50pm 3.5ft 6s 4s 16 18 mph 1010.8mb 84f 83f
1:50pm 3.5ft 7s 4s 18 20 mph 1010.6mb 84f 83f
12:50pm 3.5ft 7s 5s 16 18 mph 1010.4mb 84f 83f
11:50am 3.5ft 7s 4s 16 18 mph 1010.1mb 84f 83f
10:50am 3.5ft 6s 4s 16 18 mph 1009.2mb 84f 83f
9:50am 3.5ft 6s 4s 16 20 mph 1008.4mb 84f 83f
8:50am 3.5ft 6s 5s 18 20 mph 1008.7mb 84f 83f
7:50am 3.5ft 7s 5s 16 18 mph 1009mb 84f 83f
6:50am 3.5ft 7s 5s 16 18 mph 1009.5mb 84f 83f
5:50am 4ft 6s 5s 13 18 mph 1010.3mb 84f 83f
4:50am 3.5ft 7s 5s 13 16 mph 1010.9mb 84f 83f
3:50am 4ft 7s 5s 13 16 mph 1011mb 84f 83f
2:50am 4ft 6s 5s 16 18 mph 1010.6mb 84f 83f
1:50am 4.5ft 7s 5s 16 18 mph 1010mb 84f 84f
12:50am 4.5ft 6s 5s 13 16 mph 1009.9mb 84f 83f
Wed 10/22 11:50pm 4.5ft 6s 4s 16 18 mph 1009.2mb 84f 83f
10:50pm 4.5ft 6s 4s 18 20 mph 1008.6mb 84f 83f
9:50pm 4.5ft 6s 4s 20 22 mph 1008.2mb 84f 83f
8:50pm 4.5ft 5s 4s 18 22 mph 1008.1mb 84f 83f
7:50pm 4.5ft 6s 4s 20 25 mph 1008.6mb 84f 84f
6:50pm 4.5ft 6s 4s 20 25 mph 1009.2mb 84f 83f
5:50pm 4ft 6s 4s 20 29 mph 1010.1mb 84f 84f
4:50pm 4ft 6s 4s 20 25 mph 1010.6mb 84f 84f
3:50pm 3.5ft 6s 4s 20 25 mph 1011.2mb 84f 84f
2:50pm 3.5ft 6s 4s 20 22 mph 1011.4mb 84f 84f
1:50pm 3.5ft 6s 4s 18 22 mph 1011mb 84f 84f
12:50pm 3.5ft 6s 4s 20 22 mph 1010.9mb 84f 84f
11:50am 3.5ft 6s 4s 18 22 mph 1010.4mb 84f 83f
10:50am 3.5ft 5s 4s 18 22 mph 1009.6mb 84f 83f
9:50am 3.5ft 6s 4s 18 20 mph 1009.4mb 84f 83f
8:50am 3.5ft 6s 4s 18 20 mph 1009.3mb 84f 83f
7:50am 3.5ft 6s 4s 18 20 mph 1009.2mb 84f 83f
6:50am 3.5ft 6s 5s 18 20 mph 1009.6mb 84f 83f
5:50am 3.5ft 6s 4s 16 20 mph 1010.1mb 84f 83f
4:50am 3.5ft 6s 4s 18 20 mph 1010.6mb 84f 83f
3:50am 3.5ft 6s 4s 18 20 mph 1011mb 84f 82f
2:50am 3.5ft 6s 4s 18 20 mph 1011mb 84f 83f
1:50am 3.5ft 6s 5s 13 18 mph 1010.8mb 84f 84f
12:50am 3.5ft 6s 5s 11 13 mph 1010.4mb 84f 83f
Tue 10/21 11:50pm 4ft 6s 5s 13
mph
1009.4mb 84f 83f
10:50pm 4ft 6s 5s 13 16 mph 1008.8mb 84f 83f
9:50pm 4.5ft 6s 5s 16 18 mph 1008.4mb 84f 83f
8:50pm 4ft 6s 5s 16 18 mph 1008.3mb 84f 84f
7:50pm 4ft 6s 4s 16 20 mph 1009mb 84f 84f
6:50pm 4.5ft 6s 5s 18 20 mph 1009.4mb 84f 84f
5:50pm 4.5ft 6s 5s 16 18 mph 1010.4mb 84f 82f
4:50pm 4.5ft 6s 5s 16 18 mph 1011.3mb 84f 83f
3:50pm 4.5ft 6s 4s 16 20 mph 1011.8mb 84f 82f
2:50pm 4.5ft 6s 5s 13 16 mph 1011.8mb 84f 83f